Time;durP1;ratioP1;P1;durP2;ratioP2;P2;SDS_P1;SDS_P2;PMS_P1;PMS_P2;Temp;Humidity;BMP_temperature;BMP_pressure;BME280_temperature;BME280_humidity;BME280_pressure;Samples;Min_cycle;Max_cycle;Signal;HPM_P1;HPM_P2
2023/10/30 00:00:50;;;;;;;16.07;15.37;;;13.90;99.90;;;;;;5077421;28;20884;-83
2023/10/30 00:03:18;;;;;;;17.00;16.30;;;13.90;99.90;;;;;;5077574;28;20527;-82
2023/10/30 00:05:47;;;;;;;17.17;16.23;;;13.90;1.00;;;;;;5079559;28;20960;-84
2023/10/30 00:08:18;;;;;;;16.53;15.80;;;13.90;1.00;;;;;;5076955;28;20502;-83
2023/10/30 00:10:47;;;;;;;17.10;16.40;;;13.90;99.90;;;;;;5081495;28;20446;-84
2023/10/30 00:13:15;;;;;;;17.13;16.20;;;13.90;1.00;;;;;;5082582;28;20520;-84
2023/10/30 00:15:44;;;;;;;15.77;15.17;;;13.90;99.90;;;;;;5087459;28;20524;-85
2023/10/30 00:18:13;;;;;;;16.10;15.50;;;13.90;1.00;;;;;;5087705;28;20561;-84
2023/10/30 00:20:41;;;;;;;15.90;15.23;;;13.90;99.90;;;;;;5085605;28;20497;-83
2023/10/30 00:23:09;;;;;;;15.77;15.10;;;13.90;1.00;;;;;;5084446;28;20545;-84
2023/10/30 00:25:39;;;;;;;15.80;15.10;;;13.90;1.00;;;;;;5078610;28;20465;-82
2023/10/30 00:28:07;;;;;;;15.83;15.30;;;13.90;1.00;;;;;;5083269;28;20512;-82
2023/10/30 00:30:36;;;;;;;15.40;14.80;;;13.90;1.00;;;;;;5076681;28;20450;-83
2023/10/30 00:33:04;;;;;;;15.30;14.80;;;13.80;99.90;;;;;;5077973;28;20459;-82
2023/10/30 00:35:32;;;;;;;14.60;14.20;;;13.90;99.90;;;;;;5076853;28;20439;-83
2023/10/30 00:38:01;;;;;;;14.60;14.10;;;13.90;99.90;;;;;;5083188;28;20470;-82
2023/10/30 00:40:29;;;;;;;15.00;14.50;;;13.90;99.90;;;;;;5083354;28;22491;-82
2023/10/30 00:42:59;;;;;;;14.80;14.30;;;13.90;99.90;;;;;;5079188;28;20453;-83
2023/10/30 00:45:27;;;;;;;15.00;14.30;;;13.80;99.90;;;;;;5081444;28;20516;-85
2023/10/30 00:47:55;;;;;;;14.50;14.10;;;13.80;1.00;;;;;;5082193;28;20513;-82
2023/10/30 00:50:24;;;;;;;15.00;14.50;;;13.90;99.90;;;;;;5078431;28;20454;-83
2023/10/30 00:52:52;;;;;;;15.30;14.50;;;13.90;99.90;;;;;;5084982;28;20980;-83
2023/10/30 00:55:20;;;;;;;14.60;14.20;;;13.90;99.90;;;;;;5078416;28;20463;-83
2023/10/30 00:57:49;;;;;;;15.80;15.20;;;13.90;1.00;;;;;;5079374;28;20486;-84
2023/10/30 01:00:19;;;;;;;15.20;14.77;;;13.90;1.00;;;;;;5078229;28;20908;-83
2023/10/30 01:02:47;;;;;;;15.40;14.90;;;13.90;99.90;;;;;;5081776;28;20449;-80
2023/10/30 01:05:16;;;;;;;15.37;14.87;;;13.90;1.00;;;;;;5075397;28;20457;-82
2023/10/30 01:07:45;;;;;;;14.70;14.30;;;13.90;1.00;;;;;;5078850;28;20512;-81
2023/10/30 01:10:13;;;;;;;14.77;14.37;;;13.90;99.90;;;;;;5078303;28;20500;-79
2023/10/30 01:12:41;;;;;;;15.60;15.07;;;13.90;1.00;;;;;;5081330;28;20550;-81
2023/10/30 01:15:10;;;;;;;15.37;14.87;;;13.90;1.00;;;;;;5083468;28;20455;-82
2023/10/30 01:17:40;;;;;;;14.90;14.40;;;13.90;1.00;;;;;;5082725;28;20479;-83
2023/10/30 01:20:09;;;;;;;14.90;14.50;;;13.90;1.00;;;;;;5082285;28;20482;-82
2023/10/30 01:22:37;;;;;;;15.00;14.60;;;13.90;1.00;;;;;;5082539;28;20516;-80
2023/10/30 01:25:06;;;;;;;15.47;15.00;;;13.90;1.00;;;;;;5082048;28;21224;-80
2023/10/30 01:27:34;;;;;;;14.30;13.90;;;13.90;99.90;;;;;;5081023;28;20455;-81
2023/10/30 01:30:03;;;;;;;15.30;14.60;;;13.90;99.90;;;;;;5083810;28;20539;-81
2023/10/30 01:32:31;;;;;;;14.23;13.87;;;13.90;1.00;;;;;;5077001;28;20494;-81
2023/10/30 01:35:01;;;;;;;14.40;13.90;;;13.90;99.90;;;;;;5080571;28;20435;-82
2023/10/30 01:37:29;;;;;;;13.93;13.63;;;13.90;1.00;;;;;;5078380;28;20492;-84
2023/10/30 01:39:58;;;;;;;14.40;14.00;;;13.90;67.80;;;;;;5080479;28;20475;-81
2023/10/30 01:42:26;;;;;;;14.03;13.70;;;13.90;99.90;;;;;;5080763;28;20454;-83
2023/10/30 01:44:56;;;;;;;14.03;13.70;;;13.90;28.70;;;;;;5078011;28;20516;-83
2023/10/30 01:47:25;;;;;;;13.70;13.40;;;13.90;99.90;;;;;;5083652;28;20582;-83
2023/10/30 01:49:54;;;;;;;13.90;13.57;;;14.00;1.00;;;;;;5080041;28;20885;-82
2023/10/30 01:52:24;;;;;;;14.40;14.10;;;14.00;1.00;;;;;;5083565;28;20898;-83
2023/10/30 01:54:53;;;;;;;14.40;13.90;;;14.00;1.00;;;;;;5084266;28;20490;-83
2023/10/30 01:57:23;;;;;;;14.20;13.63;;;13.90;15.50;;;;;;5079366;28;20484;-84
2023/10/30 01:59:52;;;;;;;14.37;13.90;;;13.90;1.00;;;;;;5077938;28;20620;-83
2023/10/30 02:02:21;;;;;;;13.67;13.37;;;13.90;34.90;;;;;;5083503;28;20477;-83
2023/10/30 02:04:50;;;;;;;13.93;13.57;;;13.90;1.00;;;;;;5081483;28;20455;-84
2023/10/30 02:07:19;;;;;;;14.40;14.00;;;13.90;99.90;;;;;;5080094;28;20479;-84
2023/10/30 02:09:50;;;;;;;13.90;13.57;;;14.00;95.50;;;;;;5081734;28;20447;-84
2023/10/30 02:12:19;;;;;;;14.00;13.70;;;13.90;99.90;;;;;;5089688;28;20998;-83
2023/10/30 02:14:47;;;;;;;14.30;14.00;;;14.00;99.90;;;;;;5080751;28;20455;-83
2023/10/30 02:17:15;;;;;;;13.90;13.60;;;14.00;1.00;;;;;;5076486;28;20478;-80
2023/10/30 02:19:44;;;;;;;14.37;13.93;;;14.00;1.00;;;;;;5081716;28;20501;-83
2023/10/30 02:22:12;;;;;;;14.37;13.97;;;14.00;1.00;;;;;;5078216;28;20450;-83
2023/10/30 02:24:40;;;;;;;13.93;13.53;;;14.00;1.00;;;;;;5080061;28;20559;-81
2023/10/30 02:27:10;;;;;;;13.90;13.60;;;14.00;99.90;;;;;;5081344;28;20463;-84
2023/10/30 02:29:40;;;;;;;13.80;13.50;;;13.90;99.90;;;;;;5080980;28;20446;-83
2023/10/30 02:32:09;;;;;;;13.90;13.60;;;14.00;99.90;;;;;;5079022;28;20478;-84
2023/10/30 02:34:37;;;;;;;13.97;13.67;;;13.90;99.90;;;;;;5076162;28;20526;-81
2023/10/30 02:37:06;;;;;;;13.70;13.40;;;13.90;99.90;;;;;;5080064;28;20447;-83
2023/10/30 02:39:34;;;;;;;13.93;13.63;;;13.90;99.90;;;;;;5080885;28;20500;-83
2023/10/30 02:42:04;;;;;;;14.20;13.87;;;13.90;1.00;;;;;;5078792;28;20482;-82
2023/10/30 02:44:34;;;;;;;14.13;13.73;;;14.00;1.00;;;;;;5078777;28;20450;-83
2023/10/30 02:47:02;;;;;;;13.87;13.50;;;13.90;99.90;;;;;;5079366;28;20451;-84
2023/10/30 02:49:31;;;;;;;14.00;13.60;;;13.90;1.00;;;;;;5081063;28;20538;-85
2023/10/30 02:51:59;;;;;;;14.13;13.73;;;13.90;99.90;;;;;;5074542;28;21159;-83
2023/10/30 02:54:27;;;;;;;14.33;13.93;;;13.90;1.00;;;;;;5081122;28;20478;-83
2023/10/30 02:56:56;;;;;;;14.20;13.87;;;13.90;99.90;;;;;;5074740;28;20457;-82
2023/10/30 02:59:24;;;;;;;14.17;13.77;;;13.90;1.00;;;;;;5082175;28;20451;-83
2023/10/30 03:01:54;;;;;;;14.33;14.03;;;13.80;99.90;;;;;;5077349;28;20523;-80
2023/10/30 03:04:23;;;;;;;14.40;14.00;;;13.80;1.00;;;;;;5080271;28;20470;-84
2023/10/30 03:06:52;;;;;;;14.30;13.90;;;13.80;99.90;;;;;;5080058;28;20487;-83
2023/10/30 03:09:20;;;;;;;14.10;13.80;;;13.70;1.00;;;;;;5084907;28;20447;-83
2023/10/30 03:11:48;;;;;;;14.60;14.30;;;13.70;99.90;;;;;;5083349;28;20458;-82
2023/10/30 03:14:17;;;;;;;14.50;14.10;;;13.80;1.00;;;;;;5084332;28;20485;-81
2023/10/30 03:16:45;;;;;;;14.90;14.40;;;13.80;99.90;;;;;;5084721;28;20459;-80
2023/10/30 03:19:15;;;;;;;14.30;14.00;;;13.90;1.00;;;;;;5087579;28;20469;-81
2023/10/30 03:21:43;;;;;;;14.40;14.10;;;13.80;1.00;;;;;;5085359;28;20470;-83
2023/10/30 03:24:11;;;;;;;14.20;13.90;;;13.80;99.90;;;;;;5088029;28;20453;-82
2023/10/30 03:26:40;;;;;;;14.50;14.10;;;13.80;1.00;;;;;;5081003;28;20455;-83
2023/10/30 03:29:08;;;;;;;14.50;14.20;;;13.70;1.00;;;;;;5083489;28;20554;-83
2023/10/30 03:31:36;;;;;;;14.43;14.13;;;13.80;99.90;;;;;;5087941;28;20450;-82
2023/10/30 03:34:04;;;;;;;14.30;14.00;;;13.70;99.90;;;;;;5087873;28;20470;-84
2023/10/30 03:36:34;;;;;;;14.43;14.00;;;13.70;1.00;;;;;;5086354;28;20660;-84
2023/10/30 03:39:04;;;;;;;14.47;14.17;;;13.70;72.50;;;;;;5077988;28;20478;-84
2023/10/30 03:41:32;;;;;;;14.60;14.30;;;13.70;99.90;;;;;;5079065;28;20467;-84
2023/10/30 03:44:00;;;;;;;15.10;14.57;;;13.70;99.90;;;;;;5085703;28;20449;-83
2023/10/30 03:46:29;;;;;;;15.37;14.87;;;13.70;1.00;;;;;;5084071;28;20447;-83
2023/10/30 03:48:58;;;;;;;14.90;14.50;;;13.70;1.00;;;;;;5078991;28;20592;-83
2023/10/30 03:51:26;;;;;;;14.73;14.33;;;13.70;99.90;;;;;;5081484;28;20504;-83
2023/10/30 03:53:56;;;;;;;14.60;14.20;;;13.70;72.10;;;;;;5082673;28;20458;-83
2023/10/30 03:56:24;;;;;;;14.70;14.20;;;13.70;99.90;;;;;;5081183;28;20446;-82
2023/10/30 03:58:52;;;;;;;15.47;15.00;;;13.70;1.00;;;;;;5083034;28;20463;-82
2023/10/30 04:01:21;;;;;;;14.60;14.20;;;13.60;1.00;;;;;;5089041;28;20544;-82
2023/10/30 04:03:51;;;;;;;14.53;14.23;;;13.60;1.00;;;;;;5092697;28;20470;-81
2023/10/30 04:06:20;;;;;;;15.40;14.90;;;13.60;1.00;;;;;;5088377;28;20450;-82
2023/10/30 04:08:48;;;;;;;15.27;14.80;;;13.50;1.00;;;;;;5088913;28;20481;-82
2023/10/30 04:11:18;;;;;;;15.83;15.33;;;13.40;1.00;;;;;;5094121;28;20480;-83
2023/10/30 04:13:47;;;;;;;15.70;15.30;;;13.50;1.00;;;;;;5086704;28;22474;-84
2023/10/30 04:16:16;;;;;;;16.00;15.50;;;13.40;1.00;;;;;;5089353;28;20463;-83
2023/10/30 04:18:45;;;;;;;15.80;15.20;;;13.30;99.90;;;;;;5092508;28;21004;-83
2023/10/30 04:21:13;;;;;;;16.43;15.60;;;13.40;1.00;;;;;;5091943;28;20500;-83
2023/10/30 04:23:44;;;;;;;16.00;15.50;;;13.40;99.90;;;;;;5088984;28;20446;-83
2023/10/30 04:26:12;;;;;;;15.50;15.10;;;13.40;99.90;;;;;;5086116;28;20903;-84
2023/10/30 04:28:42;;;;;;;15.73;15.23;;;13.40;99.90;;;;;;5083889;28;20580;-83
2023/10/30 04:31:10;;;;;;;15.73;15.23;;;13.40;1.00;;;;;;5088484;28;20814;-85
2023/10/30 04:33:38;;;;;;;16.37;15.87;;;13.40;1.00;;;;;;5087791;28;20450;-83
2023/10/30 04:36:07;;;;;;;16.07;15.57;;;13.40;99.90;;;;;;5087598;28;20815;-84
2023/10/30 04:38:36;;;;;;;16.30;15.70;;;13.40;42.30;;;;;;5089957;28;20515;-85
2023/10/30 04:41:05;;;;;;;16.50;16.00;;;13.40;99.90;;;;;;5079869;28;21015;-83
2023/10/30 04:43:34;;;;;;;16.00;15.40;;;13.40;1.00;;;;;;5090115;28;20478;-81
2023/10/30 04:46:04;;;;;;;16.20;15.60;;;13.40;45.40;;;;;;5087727;28;21172;-83
2023/10/30 04:48:32;;;;;;;15.77;15.27;;;13.40;1.00;;;;;;5086231;28;21283;-83
2023/10/30 04:51:01;;;;;;;16.10;15.60;;;13.40;1.00;;;;;;5087319;28;20442;-83
2023/10/30 04:53:30;;;;;;;16.00;15.50;;;13.40;99.90;;;;;;5081939;28;20491;-82
2023/10/30 04:55:59;;;;;;;16.50;15.97;;;13.40;99.90;;;;;;5081536;28;21020;-83
2023/10/30 04:58:27;;;;;;;16.73;16.03;;;13.40;1.00;;;;;;5083222;28;20492;-85
2023/10/30 05:00:56;;;;;;;16.23;15.73;;;13.30;33.50;;;;;;5082316;28;20454;-84
2023/10/30 05:03:26;;;;;;;17.20;16.03;;;13.40;1.00;;;;;;5082079;28;20461;-84
2023/10/30 05:05:54;;;;;;;15.53;15.03;;;13.40;99.90;;;;;;5077328;28;20443;-83
2023/10/30 05:08:22;;;;;;;15.70;15.30;;;13.40;99.90;;;;;;5081834;28;20569;-84
2023/10/30 05:10:50;;;;;;;15.77;15.30;;;13.40;1.00;;;;;;5089753;28;20457;-84
2023/10/30 05:13:20;;;;;;;16.00;15.50;;;13.40;32.90;;;;;;5081717;28;20493;-83
2023/10/30 05:15:48;;;;;;;15.80;15.30;;;13.40;28.40;;;;;;5081550;28;20486;-83
2023/10/30 05:18:17;;;;;;;16.30;15.70;;;13.30;99.90;;;;;;5072526;28;20562;-79
2023/10/30 05:20:47;;;;;;;16.83;16.33;;;13.30;99.90;;;;;;5072717;28;20450;-77
2023/10/30 05:23:16;;;;;;;16.97;16.37;;;13.30;37.40;;;;;;5070913;28;20832;-76
2023/10/30 05:25:44;;;;;;;16.97;16.37;;;13.30;99.90;;;;;;5077441;28;20462;-82
2023/10/30 05:28:13;;;;;;;16.23;15.73;;;13.20;99.90;;;;;;5082758;28;20565;-84
2023/10/30 05:30:41;;;;;;;16.13;15.53;;;13.20;99.90;;;;;;5085836;28;20450;-83
2023/10/30 05:33:09;;;;;;;16.70;16.10;;;13.20;99.90;;;;;;5075425;28;21004;-84
2023/10/30 05:35:38;;;;;;;17.40;16.70;;;13.20;99.90;;;;;;5081805;28;20457;-83
2023/10/30 05:38:08;;;;;;;16.83;16.27;;;13.20;99.90;;;;;;5081487;28;20482;-86
2023/10/30 05:40:36;;;;;;;17.63;16.73;;;13.20;99.90;;;;;;5074031;28;20455;-85
2023/10/30 05:43:05;;;;;;;17.20;16.60;;;13.20;1.00;;;;;;5074571;28;20495;-85
2023/10/30 05:45:33;;;;;;;18.23;17.03;;;13.10;99.90;;;;;;5080396;28;20446;-83
2023/10/30 05:48:02;;;;;;;17.80;16.83;;;13.10;99.90;;;;;;5079594;28;20478;-82
2023/10/30 05:50:30;;;;;;;17.83;17.13;;;13.10;99.90;;;;;;5073195;28;20467;-84
2023/10/30 05:52:58;;;;;;;17.83;17.13;;;13.00;1.00;;;;;;5073522;28;20461;-84
2023/10/30 05:55:28;;;;;;;18.00;17.27;;;13.00;1.00;;;;;;5081099;28;20949;-85
2023/10/30 05:57:57;;;;;;;17.23;16.63;;;13.10;1.00;;;;;;5078098;28;20537;-82
2023/10/30 06:00:25;;;;;;;17.70;17.00;;;13.00;78.00;;;;;;5083533;28;20542;-82
2023/10/30 06:02:54;;;;;;;16.93;16.33;;;13.10;99.90;;;;;;5079196;28;20984;-84
2023/10/30 06:05:22;;;;;;;17.30;16.70;;;13.00;99.90;;;;;;5078790;28;20459;-84
2023/10/30 06:07:51;;;;;;;17.10;16.50;;;13.00;99.90;;;;;;5079823;28;20483;-82
2023/10/30 06:10:22;;;;;;;17.73;17.13;;;13.00;99.90;;;;;;5083251;28;21162;-83
2023/10/30 06:12:51;;;;;;;17.43;16.83;;;13.00;99.90;;;;;;5079533;28;20542;-84
2023/10/30 06:15:20;;;;;;;16.60;16.00;;;13.00;10.10;;;;;;5078455;28;20448;-84
2023/10/30 06:17:49;;;;;;;16.90;16.20;;;12.90;1.00;;;;;;5071628;28;20475;-84
2023/10/30 06:20:17;;;;;;;17.07;16.40;;;13.00;99.90;;;;;;5075622;28;20515;-81
2023/10/30 06:22:46;;;;;;;17.30;16.57;;;12.90;99.90;;;;;;5077182;28;20475;-83
2023/10/30 06:25:14;;;;;;;17.63;16.90;;;12.90;99.90;;;;;;5075243;28;20454;-82
2023/10/30 06:27:42;;;;;;;17.97;17.27;;;12.90;99.90;;;;;;5076230;28;20474;-84
2023/10/30 06:30:14;;;;;;;17.40;16.70;;;12.80;99.90;;;;;;5078776;28;20508;-84
2023/10/30 06:32:42;;;;;;;18.80;17.80;;;12.90;99.90;;;;;;5077776;28;20968;-85
2023/10/30 06:35:11;;;;;;;19.13;18.23;;;12.90;1.00;;;;;;5079617;28;20496;-83
2023/10/30 06:37:39;;;;;;;19.20;18.40;;;12.90;99.90;;;;;;5078120;28;20481;-83
2023/10/30 06:40:09;;;;;;;18.00;17.30;;;12.90;1.00;;;;;;5084050;28;20451;-83
2023/10/30 06:42:37;;;;;;;18.57;17.67;;;12.90;99.90;;;;;;5072139;28;20471;-83
2023/10/30 06:45:06;;;;;;;17.70;16.90;;;12.90;99.90;;;;;;5075966;28;20450;-83
2023/10/30 06:47:36;;;;;;;18.40;17.60;;;13.00;99.90;;;;;;5079405;28;20471;-83
2023/10/30 06:50:05;;;;;;;18.33;17.40;;;12.90;1.00;;;;;;5074244;28;20458;-85
2023/10/30 06:52:34;;;;;;;18.77;17.80;;;13.00;99.90;;;;;;5078525;28;20818;-85
2023/10/30 06:55:02;;;;;;;19.20;18.13;;;13.10;1.00;;;;;;5078910;28;20464;-84
2023/10/30 06:57:30;;;;;;;19.27;18.37;;;12.90;1.00;;;;;;5070757;28;20467;-83
2023/10/30 06:59:59;;;;;;;17.97;17.07;;;12.90;99.90;;;;;;5069576;28;20463;-85
2023/10/30 07:02:27;;;;;;;18.50;17.70;;;12.90;99.90;;;;;;5075554;28;20474;-83
2023/10/30 07:04:57;;;;;;;18.07;17.17;;;13.00;99.90;;;;;;5076264;28;20550;-83
2023/10/30 07:07:25;;;;;;;18.60;17.70;;;13.00;99.90;;;;;;5070235;28;20486;-80
2023/10/30 07:09:54;;;;;;;17.90;17.10;;;13.10;1.00;;;;;;5076698;28;20451;-83
2023/10/30 07:12:22;;;;;;;18.67;17.77;;;13.20;1.00;;;;;;5077958;28;20450;-84
2023/10/30 07:14:50;;;;;;;18.00;17.10;;;13.30;99.90;;;;;;5075895;28;20462;-84
2023/10/30 07:17:21;;;;;;;19.43;18.53;;;13.30;99.90;;;;;;5077880;28;20488;-83
2023/10/30 07:19:50;;;;;;;19.50;18.50;;;13.40;36.60;;;;;;5072738;28;20460;-84
2023/10/30 07:22:20;;;;;;;20.80;19.40;;;13.60;1.00;;;;;;5075848;28;20454;-83
2023/10/30 07:24:48;;;;;;;18.57;17.77;;;13.70;99.90;;;;;;5069604;28;20450;-83
2023/10/30 07:27:18;;;;;;;18.53;17.63;;;13.80;54.90;;;;;;5068282;28;20566;-83
2023/10/30 07:29:46;;;;;;;18.70;17.80;;;13.80;1.00;;;;;;5070057;28;20998;-85
2023/10/30 07:32:14;;;;;;;17.60;16.83;;;13.90;1.00;;;;;;5075754;28;20534;-84
2023/10/30 07:34:43;;;;;;;18.85;17.85;;;14.10;1.00;;;;;;5072026;28;20440;-83
2023/10/30 07:37:11;;;;;;;17.90;17.00;;;14.00;99.90;;;;;;5078108;28;20209;-84
2023/10/30 07:39:41;;;;;;;17.50;16.80;;;14.30;99.90;;;;;;5078764;28;20528;-84
2023/10/30 07:42:10;;;;;;;17.40;16.60;;;14.30;1.00;;;;;;5078240;28;20462;-85
2023/10/30 07:44:38;;;;;;;18.23;17.33;;;14.40;44.40;;;;;;5076306;28;20481;-86
2023/10/30 07:47:07;;;;;;;17.93;17.13;;;14.60;1.00;;;;;;5093197;28;20490;-85
2023/10/30 07:49:35;;;;;;;18.07;17.17;;;14.70;99.90;;;;;;5079225;28;20448;-85
2023/10/30 07:52:04;;;;;;;18.90;17.80;;;14.60;99.90;;;;;;5071255;28;20455;-86
2023/10/30 07:54:33;;;;;;;17.53;16.77;;;14.60;99.90;;;;;;5074750;28;20453;-86
2023/10/30 07:57:04;;;;;;;18.07;17.27;;;14.80;99.90;;;;;;5067274;28;20475;-85
2023/10/30 07:59:35;;;;;;;17.13;16.33;;;14.80;99.90;;;;;;5072099;28;20486;-85
2023/10/30 08:02:05;;;;;;;17.90;17.03;;;14.80;99.90;;;;;;5078470;28;20443;-86
2023/10/30 08:04:33;;;;;;;18.57;17.40;;;14.90;99.90;;;;;;5069591;28;20528;-85
2023/10/30 08:07:02;;;;;;;16.80;15.90;;;15.10;99.90;;;;;;5075271;28;20466;-85
2023/10/30 08:09:30;;;;;;;17.30;16.50;;;15.30;99.90;;;;;;5078660;28;20447;-85
2023/10/30 08:11:59;;;;;;;16.60;15.80;;;15.30;33.20;;;;;;5073724;28;20472;-82
2023/10/30 08:14:29;;;;;;;18.07;17.10;;;15.50;1.00;;;;;;5079780;28;20454;-84
2023/10/30 08:17:00;;;;;;;17.23;16.53;;;15.70;1.00;;;;;;5072678;28;20455;-85
2023/10/30 08:19:30;;;;;;;16.10;15.40;;;15.90;1.00;;;;;;5081255;28;20462;-83
2023/10/30 08:21:59;;;;;;;16.33;15.63;;;16.20;1.00;;;;;;5081852;28;20458;-84
2023/10/30 08:24:27;;;;;;;16.80;16.10;;;16.30;1.00;;;;;;5074047;28;20474;-85
2023/10/30 08:26:56;;;;;;;16.60;16.00;;;16.60;1.00;;;;;;5078975;28;20465;-86
2023/10/30 08:29:24;;;;;;;16.70;15.90;;;16.80;1.00;;;;;;5078098;28;20458;-84
2023/10/30 08:31:54;;;;;;;17.00;16.30;;;16.60;1.00;;;;;;5080209;28;20455;-85
2023/10/30 08:34:23;;;;;;;17.40;16.53;;;16.60;1.00;;;;;;5085712;28;20479;-86
2023/10/30 08:36:52;;;;;;;16.50;15.60;;;16.40;1.00;;;;;;5083124;28;20478;-86
2023/10/30 08:39:20;;;;;;;15.37;14.77;;;16.30;1.00;;;;;;5079951;28;20521;-83
2023/10/30 08:41:49;;;;;;;16.47;15.77;;;16.10;1.00;;;;;;5080486;28;20451;-84
2023/10/30 08:44:17;;;;;;;16.40;15.70;;;16.20;1.00;;;;;;5077848;28;20527;-85
2023/10/30 08:46:46;;;;;;;15.63;14.93;;;16.20;1.00;;;;;;5081589;28;20503;-84
2023/10/30 08:49:16;;;;;;;15.87;15.27;;;16.10;1.00;;;;;;5076110;28;20479;-85
2023/10/30 08:51:44;;;;;;;15.17;14.57;;;16.10;1.00;;;;;;5076101;28;20530;-87
2023/10/30 08:54:30;;;;;;;14.60;14.10;;;16.10;1.00;;;;;;5080770;28;20454;-84
2023/10/30 08:57:01;;;;;;;15.93;15.40;;;16.10;1.00;;;;;;5071959;28;20462;-84
2023/10/30 08:59:44;;;;;;;14.87;14.30;;;16.20;1.00;;;;;;5087427;28;20500;-84
2023/10/30 09:02:12;;;;;;;15.37;14.87;;;16.10;1.00;;;;;;5077402;28;20458;-85
2023/10/30 09:04:42;;;;;;;15.50;14.40;;;16.20;1.00;;;;;;5077664;28;20505;-85
2023/10/30 09:07:11;;;;;;;15.13;14.53;;;16.50;1.00;;;;;;5076645;28;20531;-83
2023/10/30 09:09:39;;;;;;;15.37;14.77;;;16.80;1.00;;;;;;5079818;28;20446;-84
2023/10/30 09:12:09;;;;;;;14.97;14.53;;;17.10;99.90;;;;;;5079659;28;20469;-84
2023/10/30 09:14:37;;;;;;;14.60;14.10;;;17.40;99.90;;;;;;5077816;28;20450;-85
2023/10/30 09:17:08;;;;;;;13.80;13.40;;;18.00;99.90;;;;;;5072178;28;20501;-85
2023/10/30 09:19:37;;;;;;;14.27;13.67;;;18.30;99.90;;;;;;5077478;28;20454;-84
2023/10/30 09:22:07;;;;;;;13.87;13.17;;;18.40;99.90;;;;;;5075778;28;20560;-82
2023/10/30 09:24:36;;;;;;;13.73;13.33;;;18.50;99.90;;;;;;5074007;28;20573;-83
2023/10/30 09:27:05;;;;;;;13.37;13.07;;;18.60;99.90;;;;;;5071956;28;20469;-83
2023/10/30 09:29:33;;;;;;;13.60;12.90;;;18.80;99.90;;;;;;5081532;28;20450;-84
2023/10/30 09:32:03;;;;;;;13.83;13.40;;;19.00;99.90;;;;;;5078446;28;20458;-83
2023/10/30 09:34:34;;;;;;;14.90;14.03;;;18.90;99.90;;;;;;5072847;28;22252;-83
2023/10/30 09:37:03;;;;;;;14.47;13.87;;;18.90;99.90;;;;;;5076645;28;20529;-80
2023/10/30 09:39:32;;;;;;;13.83;13.33;;;18.90;99.90;;;;;;5077584;28;20933;-83
2023/10/30 09:42:01;;;;;;;13.80;13.40;;;18.90;99.90;;;;;;5078557;28;20972;-85
2023/10/30 09:44:30;;;;;;;13.90;13.50;;;18.70;99.90;;;;;;5077208;28;20478;-83
2023/10/30 09:47:00;;;;;;;14.10;13.60;;;18.90;99.90;;;;;;5080126;28;20459;-84
2023/10/30 09:49:30;;;;;;;13.57;13.10;;;19.10;99.90;;;;;;5073879;28;20473;-84
2023/10/30 09:52:00;;;;;;;13.00;12.60;;;19.00;99.90;;;;;;5081033;28;20447;-83
2023/10/30 09:54:30;;;;;;;13.20;12.80;;;19.10;99.90;;;;;;5078742;28;20530;-84
2023/10/30 09:57:01;;;;;;;13.90;13.50;;;18.80;99.90;;;;;;5073849;28;20508;-84
2023/10/30 09:59:33;;;;;;;13.50;13.10;;;18.70;99.90;;;;;;5080359;28;21279;-85
2023/10/30 10:02:02;;;;;;;13.60;13.20;;;18.60;99.90;;;;;;5075893;28;20454;-84
2023/10/30 10:04:32;;;;;;;14.13;13.73;;;18.80;99.90;;;;;;5081615;28;20482;-83
2023/10/30 10:07:01;;;;;;;14.60;13.80;;;19.20;99.90;;;;;;5077420;28;20951;-84
2023/10/30 10:09:30;;;;;;;14.23;13.73;;;19.40;99.90;;;;;;5072982;28;20729;-85
2023/10/30 10:12:00;;;;;;;13.50;13.10;;;20.00;99.90;;;;;;5085750;28;20459;-85
2023/10/30 10:14:31;;;;;;;13.43;13.13;;;20.60;99.90;;;;;;5079970;28;20454;-83
2023/10/30 10:17:00;;;;;;;13.80;13.40;;;21.20;99.90;;;;;;5085388;28;20801;-84
2023/10/30 10:19:33;;;;;;;13.70;13.40;;;21.70;99.90;;;;;;5082737;28;20451;-84
2023/10/30 10:22:02;;;;;;;12.83;12.53;;;21.70;99.90;;;;;;5084924;28;20458;-84
2023/10/30 10:24:32;;;;;;;13.53;13.03;;;20.60;99.90;;;;;;5081992;28;20500;-84
2023/10/30 10:27:04;;;;;;;13.00;12.60;;;20.10;99.90;;;;;;5084792;28;20469;-83
2023/10/30 10:29:33;;;;;;;12.20;11.90;;;19.60;99.90;;;;;;5082149;28;20446;-84
2023/10/30 10:32:02;;;;;;;12.33;12.03;;;19.10;99.90;;;;;;5078866;28;20465;-86
2023/10/30 10:34:31;;;;;;;12.27;11.93;;;18.90;99.90;;;;;;5079498;28;20490;-84
2023/10/30 10:37:01;;;;;;;11.93;11.63;;;18.60;99.90;;;;;;5084141;28;20459;-84
2023/10/30 10:39:47;;;;;;;11.77;11.50;;;18.30;99.90;;;;;;5083879;28;20475;-82
2023/10/30 10:42:25;;;;;;;12.47;11.90;;;18.00;99.90;;;;;;5086089;28;21184;-83
2023/10/30 10:44:57;;;;;;;11.73;11.43;;;17.90;99.90;;;;;;5081014;28;20470;-85
2023/10/30 10:47:25;;;;;;;11.57;11.27;;;17.80;99.90;;;;;;5082220;28;21007;-84
2023/10/30 10:49:54;;;;;;;11.70;11.47;;;17.80;99.90;;;;;;5074961;28;20455;-85
2023/10/30 10:52:22;;;;;;;11.47;11.17;;;17.60;99.90;;;;;;5083395;28;20455;-83
2023/10/30 10:54:59;;;;;;;11.30;11.10;;;17.60;99.90;;;;;;5080816;28;20454;-83
2023/10/30 10:57:35;;;;;;;11.20;10.90;;;17.50;99.90;;;;;;5084144;28;20481;-84
2023/10/30 11:00:09;;;;;;;11.50;11.23;;;17.40;99.90;;;;;;5079337;28;20459;-83
2023/10/30 11:02:40;;;;;;;11.30;11.00;;;17.30;99.90;;;;;;5077723;28;20458;-85
2023/10/30 11:05:09;;;;;;;11.10;10.90;;;17.20;99.90;;;;;;5078654;28;21002;-83
2023/10/30 11:07:42;;;;;;;11.30;11.10;;;17.20;99.90;;;;;;5085126;28;20474;-84
2023/10/30 11:10:18;;;;;;;11.40;11.10;;;17.20;99.90;;;;;;5084730;28;20540;-84
2023/10/30 11:13:08;;;;;;;11.30;11.00;;;17.20;99.90;;;;;;5080986;28;20956;-85
2023/10/30 11:15:42;;;;;;;11.33;11.00;;;17.10;99.90;;;;;;5081670;28;20459;-85
2023/10/30 11:18:17;;;;;;;12.07;11.70;;;17.20;99.90;;;;;;5078094;28;20514;-85
2023/10/30 11:20:46;;;;;;;11.80;11.50;;;17.10;99.90;;;;;;5075350;28;20454;-84
2023/10/30 11:23:49;;;;;;;12.83;12.43;;;17.00;99.90;;;;;;5081962;28;20456;-85
2023/10/30 11:26:43;;;;;;;12.60;12.20;;;17.00;99.90;;;;;;5078020;28;20837;-87
2023/10/30 11:29:22;;;;;;;13.20;12.90;;;17.00;99.90;;;;;;5068259;28;21029;-85
2023/10/30 11:31:54;;;;;;;13.20;12.90;;;16.90;99.90;;;;;;5080295;28;20451;-84
2023/10/30 11:34:31;;;;;;;13.47;13.07;;;16.90;99.90;;;;;;5084170;28;20458;-85
2023/10/30 11:37:02;;;;;;;12.50;12.20;;;16.80;99.90;;;;;;5077347;28;20987;-86
2023/10/30 11:39:36;;;;;;;12.63;12.23;;;16.80;99.90;;;;;;5076879;28;20545;-83
2023/10/30 11:42:26;;;;;;;13.10;12.70;;;16.80;99.90;;;;;;5078356;28;20455;-86
2023/10/30 11:45:18;;;;;;;13.13;12.50;;;16.90;99.90;;;;;;5080925;28;20471;-86
2023/10/30 11:47:47;;;;;;;13.03;12.67;;;16.80;99.90;;;;;;5075895;28;20490;-86
2023/10/30 11:50:19;;;;;;;12.57;12.10;;;16.70;99.90;;;;;;5082170;28;20581;-86
2023/10/30 11:52:47;;;;;;;12.83;12.43;;;16.70;99.90;;;;;;5082948;28;20459;-86
2023/10/30 11:55:19;;;;;;;13.37;12.97;;;16.70;99.90;;;;;;5077225;28;20454;-86
2023/10/30 11:57:48;;;;;;;12.27;11.97;;;16.70;99.90;;;;;;5081286;28;20475;-86
2023/10/30 12:00:19;;;;;;;12.80;12.50;;;16.80;99.90;;;;;;5085410;28;20549;-84
2023/10/30 12:02:47;;;;;;;13.63;13.23;;;16.80;99.90;;;;;;5083251;28;20505;-84
2023/10/30 12:05:16;;;;;;;13.60;13.20;;;16.80;99.90;;;;;;5079628;28;20481;-84
2023/10/30 12:07:44;;;;;;;13.40;13.00;;;16.80;99.90;;;;;;5078879;28;20505;-85
2023/10/30 12:10:13;;;;;;;13.70;13.20;;;16.90;1.00;;;;;;5081286;28;20446;-83
2023/10/30 12:12:42;;;;;;;13.13;12.83;;;17.00;99.90;;;;;;5083039;28;20463;-84
2023/10/30 12:15:11;;;;;;;13.10;12.80;;;17.10;99.90;;;;;;5076166;28;20452;-84
2023/10/30 12:17:42;;;;;;;13.30;12.90;;;17.10;99.90;;;;;;5078782;28;20475;-83
2023/10/30 12:20:11;;;;;;;13.23;12.83;;;17.10;99.90;;;;;;5081892;28;20452;-84
2023/10/30 12:22:42;;;;;;;14.40;13.70;;;17.10;99.90;;;;;;5085023;28;20486;-86
2023/10/30 12:25:15;;;;;;;13.63;12.67;;;17.10;99.90;;;;;;5077803;28;20458;-83
2023/10/30 12:27:44;;;;;;;12.80;12.40;;;17.20;99.90;;;;;;5082135;28;20469;-83
2023/10/30 12:30:16;;;;;;;12.60;12.20;;;17.20;99.90;;;;;;5074345;28;20439;-82
2023/10/30 12:32:57;;;;;;;12.43;12.13;;;17.20;99.90;;;;;;5080167;28;20473;-85
2023/10/30 12:35:26;;;;;;;13.10;12.70;;;17.10;99.90;;;;;;5086173;28;20948;-84
2023/10/30 12:37:55;;;;;;;13.80;13.40;;;17.10;99.90;;;;;;5083016;28;20478;-83
2023/10/30 12:40:24;;;;;;;12.73;12.33;;;17.10;99.90;;;;;;5078101;28;20800;-83
2023/10/30 12:42:53;;;;;;;12.73;12.40;;;17.10;99.90;;;;;;5083828;28;20467;-82